Meath Environmental Platform

Observations

Time Sensor AQI SAQ Temp °C Hum % Pres Pa CO μg/m³ H₂S μg/m³ NO μg/m³ NO₂ μg/m³ O₃ μg/m³ SO₂ μg/m³ CO₂e PPM VOC PPM PM1 μg/m³ PM2.5 μg/m³ PM4 μg/m³ PM10 μg/m³ TPS µm
Tuesday 11 August 2026
10:25 Trim Patrick St 1 29.7 42 69,187 0 0 0.82 8.93 36.76 9.8 2 7.71 8.48
10:24 Trim Patrick St 1 29.6 42 69,163 0.04 0 0.83 8.33 49.9 10.93 2 6.94 7.64
10:23 Trim Market St 1 35.4 29 66,519 0 0 0.35 11.28 75.08 0 0.71 3.9 4.29
10:23 Trim Patrick St 1 29.5 42 69,159 0 0 0.84 8.96 63.62 9.97 2 6.93 7.62
10:22 Trim Market St 1 35.3 29 66,541 0 0 0.35 7.62 37.57 0 0 3.34 3.67
10:22 Trim Patrick St 1 29.4 41 69,153 0 0 0.83 9.16 29.28 9.62 3.71 8.53 9.38
10:21 Trim Market St 1 35.3 30 66,543 0 0 0.35 11.94 69.25 0 0 3.33 3.66
10:21 Trim Patrick St 1 29.4 42 69,149 0 0 0.85 8.86 8.14 11.73 2 6.92 7.62
10:20 Trim Market St 1 35.2 30 66,513 0 0 0.37 11.55 51.23 0 0.71 3.86 4.24
10:20 Trim Patrick St 1 29.3 39 69,141 0 0 0.92 9.59 51.28 10.54 2.86 8.65 9.52
10:19 Trim Market St 1 35.1 30 66,503 0 0 0.37 12.41 57.89 0 0 2.75 3.03
10:19 Trim Patrick St 1 29.3 43 69,132 0 0 0.9 8.65 46.39 9.66 2 6.87 7.56
10:18 Trim Market St 1 35 31 66,489 0 0 0.36 11.35 63.99 0 0.71 3.27 3.6
10:17 Trim Market St 1 34.9 31 66,476 0 0 0.37 12.1 71.24 0 0 2.72 2.99
10:17 Trim Patrick St 1 29.2 41 69,175 0 0 0.94 9.08 43.64 9.42 2.86 7.75 8.53
10:16 Trim Market St 1 34.8 31 66,485 0 0 0.38 12.94 75.29 0 0 2.72 2.99
10:16 Trim Patrick St 1 29.1 43 69,179 0 0 0.94 6.44 36.27 10.61 3.71 8.4 9.24
10:15 Trim Market St 1 34.7 31 66,474 0 0 0.42 12.57 60.04 0 0.71 3.81 4.19
10:15 Trim Patrick St 1 29 42 69,181 0 0 0.92 9.06 60 10.82 3.71 8.45 9.3
10:14 Trim Market St 1 34.7 31 66,455 0 0 0.42 11.89 58.22 0 0.71 4.36 4.79